createdAt,value
2023-03-27T00:01:17.091Z,16.21
2023-03-27T00:03:44.908Z,16.11
2023-03-27T00:06:16.520Z,16.17
2023-03-27T00:08:44.560Z,16.21
2023-03-27T00:11:11.789Z,16.16
2023-03-27T00:13:49.073Z,16.09
2023-03-27T00:16:17.639Z,16.08
2023-03-27T00:18:45.007Z,16.13
2023-03-27T00:21:11.751Z,16.06
2023-03-27T00:23:38.384Z,16.08
2023-03-27T00:26:05.483Z,16.06
2023-03-27T00:28:32.384Z,16.10
2023-03-27T00:31:01.456Z,16.14
2023-03-27T00:33:28.072Z,16.01
2023-03-27T00:35:54.709Z,15.89
2023-03-27T00:38:21.550Z,15.98
2023-03-27T00:40:50.758Z,15.95
2023-03-27T00:43:29.116Z,15.94
2023-03-27T00:46:01.357Z,15.94
2023-03-27T00:48:29.398Z,16.07
2023-03-27T00:50:57.470Z,16.07
2023-03-27T00:53:26.826Z,16.06
2023-03-27T00:55:56.387Z,16.11
2023-03-27T00:58:45.605Z,16.07
2023-03-27T01:01:15.173Z,15.98
2023-03-27T01:03:44.665Z,16.00
2023-03-27T01:06:13.948Z,16.06
2023-03-27T01:08:41.825Z,16.21
2023-03-27T01:11:08.575Z,16.32
2023-03-27T01:13:59.461Z,16.22
2023-03-27T01:16:31.961Z,15.97
2023-03-27T01:19:35.326Z,16.08
2023-03-27T01:22:04.463Z,16.07
2023-03-27T01:24:50.304Z,15.90
2023-03-27T01:27:37.885Z,15.93
2023-03-27T01:30:15.313Z,15.88
2023-03-27T01:32:49.776Z,15.87
2023-03-27T01:35:34.829Z,15.81
2023-03-27T01:38:22.346Z,15.93
2023-03-27T01:40:58.501Z,15.84
2023-03-27T01:43:33.397Z,15.78
2023-03-27T01:46:07.968Z,15.84
2023-03-27T01:48:47.913Z,16.07
2023-03-27T01:51:17.808Z,15.94
2023-03-27T01:53:52.192Z,15.79
2023-03-27T01:56:31.323Z,15.74
2023-03-27T01:59:06.097Z,15.77
2023-03-27T02:01:43.028Z,15.71
2023-03-27T02:04:13.619Z,15.82
2023-03-27T02:06:47.058Z,15.75
2023-03-27T02:09:18.146Z,15.76
2023-03-27T02:11:48.959Z,15.82
2023-03-27T02:14:21.858Z,15.71
2023-03-27T02:16:53.120Z,15.88
2023-03-27T02:19:43.412Z,15.83
2023-03-27T02:22:09.964Z,15.69
2023-03-27T02:24:38.765Z,15.75
2023-03-27T02:27:13.364Z,15.67
2023-03-27T02:29:56.562Z,15.62
2023-03-27T02:32:45.938Z,15.64
2023-03-27T02:35:27.964Z,15.55
2023-03-27T02:38:12.767Z,15.64
2023-03-27T02:40:52.593Z,15.58
2023-03-27T02:43:38.245Z,15.53
2023-03-27T02:46:38.593Z,15.57
2023-03-27T02:49:13.939Z,15.52
2023-03-27T02:51:44.408Z,15.47
2023-03-27T02:54:15.137Z,15.57
2023-03-27T02:56:48.819Z,15.56
2023-03-27T02:59:27.034Z,15.52
2023-03-27T03:01:53.754Z,15.54
2023-03-27T03:04:35.064Z,15.55
2023-03-27T03:07:06.415Z,15.52
2023-03-27T03:09:33.022Z,15.47
2023-03-27T03:11:59.887Z,15.40
2023-03-27T03:14:31.521Z,15.51
2023-03-27T03:16:58.169Z,15.64
2023-03-27T03:19:24.924Z,15.46
2023-03-27T03:21:51.511Z,15.46
2023-03-27T03:24:19.039Z,15.51
2023-03-27T03:26:50.081Z,15.45
2023-03-27T03:29:19.122Z,15.46
2023-03-27T03:31:47.330Z,15.57
2023-03-27T03:34:16.612Z,15.50
2023-03-27T03:36:44.921Z,15.47
2023-03-27T03:39:12.669Z,15.63
2023-03-27T03:41:39.473Z,15.49
2023-03-27T03:44:06.406Z,15.44
2023-03-27T03:46:33.182Z,15.43
2023-03-27T03:49:00.468Z,15.41
2023-03-27T03:51:28.252Z,15.30
2023-03-27T03:53:54.858Z,15.46
2023-03-27T03:56:21.453Z,15.63
2023-03-27T03:58:48.031Z,15.51
2023-03-27T04:01:14.576Z,15.45
2023-03-27T04:03:41.653Z,15.45
2023-03-27T04:06:08.759Z,15.39
2023-03-27T04:08:35.438Z,15.34
2023-03-27T04:11:02.064Z,15.42
2023-03-27T04:13:28.631Z,15.34
2023-03-27T04:15:55.555Z,15.42
2023-03-27T04:18:24.745Z,15.51
2023-03-27T04:20:51.441Z,15.33
2023-03-27T04:23:20.730Z,15.20
2023-03-27T04:25:47.444Z,15.29
2023-03-27T04:28:17.638Z,15.30
2023-03-27T04:30:44.780Z,15.37
2023-03-27T04:33:18.547Z,15.22
2023-03-27T04:35:46.050Z,15.12
2023-03-27T04:38:34.182Z,15.30
2023-03-27T04:41:01.989Z,15.20
2023-03-27T04:43:28.763Z,15.14
2023-03-27T04:45:55.306Z,15.17
2023-03-27T04:48:21.850Z,15.15
2023-03-27T04:50:51.403Z,15.21
2023-03-27T04:53:21.950Z,15.08
2023-03-27T04:55:51.272Z,15.10
2023-03-27T04:58:18.387Z,15.10
2023-03-27T05:00:50.412Z,15.12
2023-03-27T05:03:20.800Z,15.09
2023-03-27T05:05:49.639Z,14.99
2023-03-27T05:08:16.820Z,14.97
2023-03-27T05:10:44.214Z,15.02
2023-03-27T05:13:10.780Z,15.06
2023-03-27T05:15:39.041Z,15.07
2023-03-27T05:18:07.203Z,15.08
2023-03-27T05:20:34.512Z,15.10
2023-03-27T05:23:01.094Z,15.10
2023-03-27T05:25:28.800Z,15.14
2023-03-27T05:27:55.499Z,15.11
2023-03-27T05:30:23.536Z,15.07
2023-03-27T05:32:52.452Z,15.06
2023-03-27T05:35:22.473Z,15.09
2023-03-27T05:37:51.197Z,15.06
2023-03-27T05:40:22.831Z,15.10
2023-03-27T05:42:50.485Z,14.95
2023-03-27T05:45:17.892Z,14.85
2023-03-27T05:47:46.520Z,14.92
2023-03-27T05:50:14.400Z,14.92
2023-03-27T05:52:41.456Z,14.95
2023-03-27T05:55:08.842Z,14.96
2023-03-27T05:57:39.416Z,14.89
2023-03-27T06:00:11.741Z,15.22
2023-03-27T06:02:39.326Z,15.43
2023-03-27T06:05:11.617Z,15.50
2023-03-27T06:07:43.143Z,15.67
2023-03-27T06:10:14.188Z,15.88
2023-03-27T06:12:41.839Z,16.15
2023-03-27T06:15:09.735Z,16.36
2023-03-27T06:17:38.381Z,16.56
2023-03-27T06:20:11.333Z,16.69
2023-03-27T06:22:49.250Z,16.79
2023-03-27T06:25:16.330Z,16.82
2023-03-27T06:27:44.094Z,16.90
2023-03-27T06:30:12.893Z,16.92
2023-03-27T06:32:47.295Z,16.93
2023-03-27T06:35:14.768Z,16.90
2023-03-27T06:37:42.504Z,16.82
2023-03-27T06:40:10.352Z,16.84
2023-03-27T06:42:38.219Z,16.80
2023-03-27T06:45:05.612Z,16.69
2023-03-27T06:47:36.347Z,16.75
2023-03-27T06:50:07.460Z,16.70
2023-03-27T06:52:34.003Z,16.70
2023-03-27T06:55:00.580Z,16.77
2023-03-27T06:57:27.143Z,16.81
2023-03-27T06:59:53.745Z,16.78
2023-03-27T07:02:20.604Z,16.68
2023-03-27T07:04:57.773Z,16.67
2023-03-27T07:07:28.457Z,16.74
2023-03-27T07:09:55.022Z,16.65
2023-03-27T07:12:21.638Z,16.69
2023-03-27T07:14:48.198Z,16.71
2023-03-27T07:17:14.754Z,16.73
2023-03-27T07:19:41.327Z,16.71
2023-03-27T07:22:07.865Z,16.66
2023-03-27T07:24:34.420Z,16.62
2023-03-27T07:27:01.259Z,16.61
2023-03-27T07:29:33.103Z,16.69
2023-03-27T07:32:01.694Z,16.80
2023-03-27T07:34:33.905Z,16.86
2023-03-27T07:37:00.873Z,16.94
2023-03-27T07:39:27.419Z,16.97
2023-03-27T07:41:53.981Z,17.04
2023-03-27T07:44:21.104Z,17.11
2023-03-27T07:46:47.862Z,17.16
2023-03-27T07:49:14.796Z,17.21
2023-03-27T07:51:41.359Z,17.21
2023-03-27T07:54:13.199Z,17.21
2023-03-27T07:56:40.888Z,17.35
2023-03-27T07:59:07.872Z,17.34
2023-03-27T08:01:38.006Z,17.27
2023-03-27T08:04:05.740Z,17.35
2023-03-27T08:06:32.541Z,17.32
2023-03-27T08:09:01.543Z,17.37
2023-03-27T08:11:31.009Z,17.31
2023-03-27T08:13:58.579Z,17.37
2023-03-27T08:16:28.975Z,17.39
2023-03-27T08:18:56.168Z,17.34
2023-03-27T08:21:27.095Z,17.22
2023-03-27T08:23:57.315Z,17.18
2023-03-27T08:26:26.500Z,17.14
2023-03-27T08:28:54.404Z,17.10
2023-03-27T08:31:21.035Z,17.18
2023-03-27T08:33:47.730Z,17.24
2023-03-27T08:36:14.630Z,17.34
2023-03-27T08:38:43.038Z,17.42
2023-03-27T08:41:21.948Z,17.45
2023-03-27T08:43:49.270Z,17.58
2023-03-27T08:46:22.605Z,17.64
2023-03-27T08:49:05.309Z,17.57
2023-03-27T08:51:37.228Z,17.46
2023-03-27T08:54:21.532Z,17.54
2023-03-27T08:56:48.995Z,17.67
2023-03-27T08:59:18.697Z,17.76
2023-03-27T09:01:59.357Z,17.81
2023-03-27T09:04:36.352Z,17.87
2023-03-27T09:07:11.646Z,17.89
2023-03-27T09:13:16.434Z,17.88
2023-03-27T09:16:10.987Z,17.86
2023-03-27T09:18:42.077Z,17.87
2023-03-27T09:21:41.741Z,17.86
2023-03-27T09:24:16.459Z,17.89
2023-03-27T09:26:43.130Z,17.98
2023-03-27T09:29:25.972Z,17.98
2023-03-27T09:31:58.868Z,17.86
2023-03-27T09:34:28.909Z,17.89
2023-03-27T09:36:56.056Z,17.98
2023-03-27T09:39:27.538Z,18.02
2023-03-27T09:42:01.140Z,18.07
2023-03-27T09:44:36.976Z,18.07
2023-03-27T09:47:11.431Z,17.98
2023-03-27T09:49:38.764Z,18.03
2023-03-27T09:52:07.962Z,17.98
2023-03-27T09:54:56.732Z,17.90
2023-03-27T09:57:32.238Z,17.92
2023-03-27T10:00:03.357Z,18.03
2023-03-27T10:02:31.086Z,18.02
2023-03-27T10:05:13.600Z,18.05
2023-03-27T10:07:41.522Z,18.12
2023-03-27T10:10:17.485Z,18.20
2023-03-27T10:12:47.342Z,18.22
2023-03-27T10:15:40.493Z,18.14
2023-03-27T10:18:20.169Z,18.30
2023-03-27T10:20:54.124Z,18.36
2023-03-27T10:23:41.270Z,18.50
2023-03-27T10:26:10.114Z,18.53
2023-03-27T10:28:40.924Z,18.68
2023-03-27T10:31:24.660Z,18.64
2023-03-27T10:33:51.516Z,18.67
2023-03-27T10:36:20.047Z,18.54
2023-03-27T10:38:56.418Z,18.43
2023-03-27T10:41:28.407Z,18.54
2023-03-27T10:43:56.933Z,18.63
2023-03-27T10:46:26.439Z,18.67
2023-03-27T10:49:31.047Z,18.74
2023-03-27T10:52:11.995Z,18.66
2023-03-27T10:55:02.802Z,18.77
2023-03-27T10:57:31.241Z,18.67
2023-03-27T11:00:21.446Z,18.62
2023-03-27T11:03:12.017Z,18.49
2023-03-27T11:05:47.220Z,18.39
2023-03-27T11:08:43.767Z,18.23
2023-03-27T11:11:30.990Z,18.21
2023-03-27T11:14:02.492Z,18.39
2023-03-27T11:16:41.516Z,18.42
2023-03-27T11:19:10.991Z,18.40
2023-03-27T11:21:53.801Z,18.58
2023-03-27T11:24:49.955Z,18.69
2023-03-27T11:27:28.566Z,18.64
2023-03-27T11:30:08.275Z,18.72
2023-03-27T11:32:37.824Z,18.69
2023-03-27T11:35:13.639Z,18.84
2023-03-27T11:38:01.363Z,18.74
2023-03-27T11:40:42.793Z,18.79
2023-03-27T11:43:13.706Z,18.88
2023-03-27T11:46:15.541Z,18.97
2023-03-27T11:48:47.916Z,18.94
2023-03-27T11:51:44.301Z,18.88
2023-03-27T11:54:20.882Z,18.92
2023-03-27T11:56:54.813Z,18.91
2023-03-27T11:59:42.976Z,18.94
2023-03-27T12:02:29.010Z,18.96
2023-03-27T12:05:03.954Z,18.98
2023-03-27T12:07:47.701Z,18.98
2023-03-27T12:10:29.251Z,19.06
2023-03-27T12:13:28.842Z,19.06
2023-03-27T12:16:20.252Z,19.08
2023-03-27T12:19:03.940Z,19.12
2023-03-27T12:25:34.197Z,19.04
2023-03-27T12:28:22.992Z,19.08
2023-03-27T12:31:19.363Z,19.14
2023-03-27T12:33:50.668Z,19.11
2023-03-27T12:36:21.633Z,19.13
2023-03-27T12:38:49.180Z,19.15
2023-03-27T12:41:23.306Z,19.23
2023-03-27T12:43:57.901Z,19.22
2023-03-27T12:46:24.541Z,19.24
2023-03-27T12:48:58.268Z,19.22
2023-03-27T12:51:44.108Z,19.21
2023-03-27T12:54:25.696Z,19.16
2023-03-27T12:57:13.852Z,19.05
2023-03-27T12:59:54.402Z,18.99
2023-03-27T13:02:36.369Z,18.94
2023-03-27T13:05:27.751Z,18.91
2023-03-27T13:08:10.271Z,18.80
2023-03-27T13:11:11.649Z,18.89
2023-03-27T13:13:56.400Z,19.11
2023-03-27T13:16:31.117Z,18.95
2023-03-27T13:19:00.845Z,19.13
2023-03-27T13:22:11.385Z,19.02
2023-03-27T13:25:08.220Z,19.03
2023-03-27T13:27:46.084Z,19.05
2023-03-27T13:30:42.027Z,19.18
2023-03-27T13:33:31.593Z,19.08
2023-03-27T13:35:58.319Z,19.03
2023-03-27T13:38:52.747Z,19.03
2023-03-27T13:41:48.478Z,19.12
2023-03-27T13:44:31.056Z,19.00
2023-03-27T13:47:21.942Z,18.99
2023-03-27T13:50:14.579Z,18.98
2023-03-27T13:52:54.517Z,19.08
2023-03-27T13:55:27.888Z,19.08
2023-03-27T13:58:06.791Z,19.05
2023-03-27T14:00:56.791Z,19.04
2023-03-27T14:03:42.078Z,19.11
2023-03-27T14:06:24.067Z,19.07
2023-03-27T14:09:19.682Z,19.09
2023-03-27T14:12:09.209Z,19.04
2023-03-27T14:14:47.715Z,19.00
2023-03-27T14:17:37.874Z,18.92
2023-03-27T14:20:19.174Z,18.97
2023-03-27T14:22:49.289Z,19.12
2023-03-27T14:25:19.762Z,19.00
2023-03-27T14:27:56.372Z,19.05
2023-03-27T14:30:28.199Z,19.09
2023-03-27T14:32:58.763Z,19.02
2023-03-27T14:35:29.055Z,19.11
2023-03-27T14:38:00.244Z,19.09
2023-03-27T14:40:35.639Z,19.02
2023-03-27T14:43:06.218Z,18.96
2023-03-27T14:45:34.626Z,18.95
2023-03-27T14:48:10.271Z,18.96
2023-03-27T14:50:39.834Z,18.93
2023-03-27T14:53:10.015Z,18.98
2023-03-27T14:55:38.403Z,18.99
2023-03-27T14:58:11.307Z,19.00
2023-03-27T15:00:40.608Z,18.96
2023-03-27T15:03:14.299Z,18.98
2023-03-27T15:05:57.386Z,18.92
2023-03-27T15:08:33.989Z,18.86
2023-03-27T15:11:00.700Z,18.83
2023-03-27T15:13:34.137Z,18.88
2023-03-27T15:16:01.023Z,18.81
2023-03-27T15:18:43.022Z,18.73
2023-03-27T15:21:19.901Z,18.82
2023-03-27T15:24:05.856Z,18.80
2023-03-27T15:26:36.148Z,18.72
2023-03-27T15:29:24.119Z,18.81
2023-03-27T15:31:51.962Z,18.81
2023-03-27T15:34:25.083Z,18.80
2023-03-27T15:36:55.673Z,18.75
2023-03-27T15:39:22.722Z,18.76
2023-03-27T15:41:53.612Z,18.80
2023-03-27T15:44:22.875Z,18.74
2023-03-27T15:46:51.098Z,18.75
2023-03-27T15:49:19.874Z,18.77
2023-03-27T15:51:49.551Z,18.76
2023-03-27T15:54:30.560Z,18.75
2023-03-27T15:57:09.151Z,18.72
2023-03-27T15:59:37.566Z,18.76
2023-03-27T16:02:21.313Z,18.73
2023-03-27T16:04:53.552Z,18.73
2023-03-27T16:07:30.376Z,18.71
2023-03-27T16:10:02.685Z,18.68
2023-03-27T16:12:39.321Z,18.71
2023-03-27T16:15:08.436Z,18.66
2023-03-27T16:17:41.070Z,18.66
2023-03-27T16:20:08.120Z,18.68
2023-03-27T16:22:37.234Z,18.67
2023-03-27T16:25:08.415Z,18.65
2023-03-27T16:27:40.634Z,18.66
2023-03-27T16:30:09.837Z,18.66
2023-03-27T16:32:37.010Z,18.67
2023-03-27T16:35:03.802Z,18.55
2023-03-27T16:37:32.977Z,18.58
2023-03-27T16:40:02.566Z,18.58
2023-03-27T16:42:29.131Z,18.58
2023-03-27T16:44:55.861Z,18.54
2023-03-27T16:47:23.471Z,18.57
2023-03-27T16:50:03.604Z,18.48
2023-03-27T16:52:36.693Z,18.44
2023-03-27T16:55:07.716Z,18.52
2023-03-27T16:57:34.847Z,18.50
2023-03-27T17:00:01.491Z,18.48
2023-03-27T17:02:28.851Z,18.47
2023-03-27T17:04:55.802Z,18.42
2023-03-27T17:07:24.902Z,18.41
2023-03-27T17:09:51.713Z,18.40
2023-03-27T17:12:18.297Z,18.37
2023-03-27T17:14:44.890Z,18.37
2023-03-27T17:17:11.794Z,18.36
2023-03-27T17:19:38.379Z,18.33
2023-03-27T17:22:04.937Z,18.37
2023-03-27T17:24:31.640Z,18.32
2023-03-27T17:26:59.013Z,18.27
2023-03-27T17:29:26.433Z,18.25
2023-03-27T17:31:53.505Z,18.21
2023-03-27T17:34:20.181Z,18.31
2023-03-27T17:36:54.015Z,18.27
2023-03-27T17:39:27.947Z,18.29
2023-03-27T17:41:54.501Z,18.30
2023-03-27T17:44:21.282Z,18.42
2023-03-27T17:46:47.987Z,18.41
2023-03-27T17:49:15.696Z,18.49
2023-03-27T17:51:43.773Z,18.70
2023-03-27T17:54:11.370Z,18.70
2023-03-27T17:56:38.091Z,18.75
2023-03-27T17:59:05.962Z,18.75
2023-03-27T18:01:32.580Z,18.85
2023-03-27T18:04:00.643Z,18.89
2023-03-27T18:06:27.330Z,18.88
2023-03-27T18:08:53.916Z,18.99
2023-03-27T18:11:20.685Z,18.97
2023-03-27T18:13:52.662Z,19.01
2023-03-27T18:16:20.785Z,19.05
2023-03-27T18:18:47.474Z,19.05
2023-03-27T18:21:16.142Z,19.02
2023-03-27T18:23:45.795Z,18.98
2023-03-27T18:26:13.563Z,18.87
2023-03-27T18:28:40.302Z,18.89
2023-03-27T18:31:10.658Z,18.80
2023-03-27T18:33:37.397Z,18.63
2023-03-27T18:36:12.030Z,18.70
2023-03-27T18:38:40.317Z,18.72
2023-03-27T18:41:07.110Z,18.61
2023-03-27T18:43:34.081Z,18.61
2023-03-27T18:46:05.235Z,18.51
2023-03-27T18:48:35.269Z,18.43
2023-03-27T18:51:04.045Z,18.36
2023-03-27T18:53:30.865Z,18.42
2023-03-27T18:56:00.477Z,18.44
2023-03-27T18:58:28.355Z,18.52
2023-03-27T19:00:55.754Z,18.47
2023-03-27T19:03:25.949Z,18.49
2023-03-27T19:05:52.845Z,18.45
2023-03-27T19:08:22.090Z,18.38
2023-03-27T19:10:48.910Z,18.36
2023-03-27T19:13:15.992Z,18.37
2023-03-27T19:15:42.810Z,18.27
2023-03-27T19:18:09.434Z,18.29
2023-03-27T19:20:36.270Z,18.28
2023-03-27T19:23:03.073Z,18.25
2023-03-27T19:25:29.651Z,18.20
2023-03-27T19:27:56.386Z,18.33
2023-03-27T19:30:24.024Z,18.38
2023-03-27T19:32:51.506Z,18.44
2023-03-27T19:35:19.691Z,18.38
2023-03-27T19:37:47.147Z,18.32
2023-03-27T19:40:14.294Z,18.25
2023-03-27T19:42:41.129Z,18.13
2023-03-27T19:45:08.744Z,18.12
2023-03-27T19:47:35.492Z,18.07
2023-03-27T19:50:02.038Z,18.02
2023-03-27T19:52:29.248Z,17.96
2023-03-27T19:54:55.912Z,17.95
2023-03-27T19:57:22.548Z,17.89
2023-03-27T19:59:49.332Z,17.87
2023-03-27T20:02:16.743Z,17.85
2023-03-27T20:04:43.424Z,17.78
2023-03-27T20:07:10.241Z,17.80
2023-03-27T20:09:37.273Z,17.79
2023-03-27T20:12:04.629Z,17.66
2023-03-27T20:14:32.727Z,17.66
2023-03-27T20:16:59.326Z,17.68
2023-03-27T20:19:30.814Z,17.65
2023-03-27T20:22:00.049Z,17.57
2023-03-27T20:24:26.674Z,17.63
2023-03-27T20:26:58.617Z,17.56
2023-03-27T20:29:29.271Z,17.54
2023-03-27T20:31:57.059Z,17.51
2023-03-27T20:34:24.078Z,17.39
2023-03-27T20:36:53.270Z,17.40
2023-03-27T20:39:29.454Z,17.32
2023-03-27T20:41:59.119Z,17.30
2023-03-27T20:44:35.381Z,17.36
2023-03-27T20:47:03.548Z,17.23
2023-03-27T20:49:40.558Z,17.14
2023-03-27T20:52:12.755Z,17.15
2023-03-27T20:54:39.472Z,17.11
2023-03-27T20:57:06.352Z,17.08
2023-03-27T20:59:37.457Z,17.02
2023-03-27T21:02:05.482Z,16.99
2023-03-27T21:04:32.180Z,16.95
2023-03-27T21:06:59.267Z,16.93
2023-03-27T21:09:27.016Z,16.98
2023-03-27T21:11:57.194Z,16.91
2023-03-27T21:14:23.940Z,16.86
2023-03-27T21:16:50.898Z,16.88
2023-03-27T21:19:17.828Z,16.81
2023-03-27T21:21:44.784Z,16.81
2023-03-27T21:24:11.490Z,16.89
2023-03-27T21:26:42.561Z,16.89
2023-03-27T21:29:12.080Z,16.84
2023-03-27T21:31:39.575Z,16.87
2023-03-27T21:34:09.972Z,16.80
2023-03-27T21:36:37.916Z,16.71
2023-03-27T21:39:04.835Z,16.69
2023-03-27T21:41:31.972Z,16.67
2023-03-27T21:43:58.521Z,16.74
2023-03-27T21:46:30.332Z,16.79
2023-03-27T21:48:57.060Z,16.73
2023-03-27T21:51:23.624Z,16.67
2023-03-27T21:53:50.212Z,16.67
2023-03-27T21:56:25.484Z,16.66
2023-03-27T21:58:52.267Z,16.54
2023-03-27T22:01:21.370Z,16.66
2023-03-27T22:04:01.906Z,16.61
2023-03-27T22:06:31.605Z,16.65
2023-03-27T22:08:58.165Z,16.60
2023-03-27T22:11:24.760Z,16.49
2023-03-27T22:13:51.861Z,16.54
2023-03-27T22:16:21.135Z,16.54
2023-03-27T22:18:47.767Z,16.51
2023-03-27T22:21:16.177Z,16.44
2023-03-27T22:23:42.979Z,16.50
2023-03-27T22:26:09.963Z,16.40
2023-03-27T22:28:38.858Z,16.42
2023-03-27T22:31:05.874Z,16.41
2023-03-27T22:33:34.560Z,16.46
2023-03-27T22:36:01.454Z,16.35
2023-03-27T22:38:32.545Z,16.43
2023-03-27T22:40:59.764Z,16.32
2023-03-27T22:43:28.963Z,16.35
2023-03-27T22:45:55.915Z,16.25
2023-03-27T22:48:22.535Z,16.34
2023-03-27T22:50:59.514Z,16.41
2023-03-27T22:53:26.857Z,16.31
2023-03-27T22:55:55.984Z,16.34
2023-03-27T22:58:22.806Z,16.30
2023-03-27T23:00:50.969Z,16.27
2023-03-27T23:03:17.802Z,16.31
2023-03-27T23:05:49.496Z,16.34
2023-03-27T23:08:17.651Z,16.37
2023-03-27T23:10:44.417Z,16.41
2023-03-27T23:13:11.283Z,16.36
2023-03-27T23:15:38.107Z,16.26
2023-03-27T23:18:05.176Z,16.29
2023-03-27T23:20:32.397Z,16.21
2023-03-27T23:22:58.976Z,16.25
2023-03-27T23:25:25.524Z,16.29
2023-03-27T23:27:52.083Z,16.22
2023-03-27T23:30:18.663Z,16.23
2023-03-27T23:32:45.444Z,16.17
2023-03-27T23:35:12.217Z,16.18
2023-03-27T23:37:39.635Z,16.20
2023-03-27T23:40:08.351Z,16.17
2023-03-27T23:42:34.922Z,16.13
2023-03-27T23:45:01.470Z,16.14
2023-03-27T23:47:28.036Z,16.16
2023-03-27T23:49:54.616Z,16.16
2023-03-27T23:52:21.226Z,16.13
2023-03-27T23:54:47.805Z,16.18
2023-03-27T23:57:14.407Z,16.13
2023-03-27T23:59:41.462Z,16.15
